Time;durP1;ratioP1;P1;durP2;ratioP2;P2;SDS_P1;SDS_P2;PMS_P1;PMS_P2;Temp;Humidity;BMP_temperature;BMP_pressure;BME280_temperature;BME280_humidity;BME280_pressure;Samples;Min_cycle;Max_cycle;Signal;HPM_P1;HPM_P2
2021/07/06 00:00:51;;;;;;;;;;;;;;;19.35;66.38;97945.38;1689070;84;24756;-87
2021/07/06 00:03:25;;;;;;;;;;;;;;;19.32;66.45;97945.70;1651055;85;20192;-87
2021/07/06 00:05:52;;;;;;;;;;;;;;;19.29;66.53;97946.06;1643086;85;26972;-87
2021/07/06 00:08:20;;;;;;;;;;;;;;;19.26;66.61;97950.87;1677781;84;24246;-87
2021/07/06 00:10:46;;;;;;;;;;;;;;;19.23;66.67;97953.39;1658768;85;20225;-87
2021/07/06 00:13:12;;;;;;;;;;;;;;;19.19;66.76;97952.91;1679015;83;24784;-87
2021/07/06 00:15:38;;;;;;;;;;;;;;;19.12;66.81;97957.74;1660787;85;20377;-87
2021/07/06 00:18:04;;;;;;;;;;;;;;;19.05;66.89;97957.59;1677773;85;21061;-87
2021/07/06 00:20:31;;;;;;;;;;;;;;;19.01;66.99;97962.09;1677686;85;24588;-87
2021/07/06 00:22:58;;;;;;;;;;;;;;;18.99;67.07;97961.44;1688593;84;20315;-87
2021/07/06 00:25:24;;;;;;;;;;;;;;;19.00;67.14;97958.62;1689687;83;24719;-87
2021/07/06 00:27:51;;;;;;;;;;;;;;;19.01;67.24;97950.99;1664546;85;22057;-87
2021/07/06 00:30:18;;;;;;;;;;;;;;;19.05;67.31;97962.08;1685114;84;25991;-88
2021/07/06 00:32:43;;;;;;;;;;;;;;;19.07;67.36;97962.74;1686954;83;24430;-88
2021/07/06 00:35:10;;;;;;;;;;;;;;;19.07;67.44;97960.92;1645310;85;20282;-87
2021/07/06 00:37:39;;;;;;;;;;;;;;;19.06;67.49;97959.26;1670078;85;25771;-87
2021/07/06 00:40:07;;;;;;;;;;;;;;;19.06;67.52;97957.10;1671642;85;22874;-88
2021/07/06 00:42:33;;;;;;;;;;;;;;;19.08;67.60;97959.09;1667111;85;25808;-87
2021/07/06 00:44:59;;;;;;;;;;;;;;;19.08;67.64;97959.92;1691501;83;20270;-87
2021/07/06 00:47:37;;;;;;;;;;;;;;;19.08;67.69;97962.58;1687341;84;20310;-87
2021/07/06 00:50:06;;;;;;;;;;;;;;;19.10;67.73;97959.23;1683558;84;24734;-88
2021/07/06 00:52:32;;;;;;;;;;;;;;;19.13;67.76;97966.03;1682509;84;23174;-87
2021/07/06 00:54:58;;;;;;;;;;;;;;;19.13;67.80;97967.36;1676812;84;20979;-87
2021/07/06 00:57:31;;;;;;;;;;;;;;;19.15;67.82;97968.00;1683832;84;24643;-87
2021/07/06 01:00:01;;;;;;;;;;;;;;;19.13;67.86;97968.69;1674509;84;20217;-88
2021/07/06 01:02:27;;;;;;;;;;;;;;;19.10;67.87;97969.02;1694743;83;25087;-87
2021/07/06 01:04:53;;;;;;;;;;;;;;;19.03;67.92;97976.86;1673942;83;21953;-87
2021/07/06 01:07:20;;;;;;;;;;;;;;;18.90;67.94;97976.55;1679340;84;25934;-87
2021/07/06 01:09:46;;;;;;;;;;;;;;;18.81;67.96;97970.95;1676933;84;24838;-87
2021/07/06 01:12:12;;;;;;;;;;;;;;;18.78;68.03;97973.94;1672070;84;20345;-87
2021/07/06 01:14:38;;;;;;;;;;;;;;;18.73;68.07;97975.77;1652180;85;20246;-87
2021/07/06 01:17:05;;;;;;;;;;;;;;;18.76;68.17;97978.59;1682859;84;22068;-87
2021/07/06 01:19:31;;;;;;;;;;;;;;;18.81;68.21;97974.94;1678922;84;26001;-87
2021/07/06 01:22:04;;;;;;;;;;;;;;;18.84;68.25;97975.08;1641714;85;24222;-87
2021/07/06 01:24:30;;;;;;;;;;;;;;;18.79;68.27;97976.42;1680961;84;20287;-87
2021/07/06 01:26:58;;;;;;;;;;;;;;;18.77;68.28;97976.25;1685455;84;25404;-87
2021/07/06 01:29:26;;;;;;;;;;;;;;;18.73;68.35;97978.42;1689795;84;21956;-87
2021/07/06 01:31:52;;;;;;;;;;;;;;;18.71;68.39;97972.98;1687233;84;25969;-87
2021/07/06 01:34:18;;;;;;;;;;;;;;;18.68;68.44;97971.48;1686885;84;20215;-87
2021/07/06 01:36:45;;;;;;;;;;;;;;;18.62;68.48;97968.17;1685505;83;20225;-87
2021/07/06 01:39:11;;;;;;;;;;;;;;;18.55;68.55;97970.33;1684995;84;24793;-88
2021/07/06 01:41:38;;;;;;;;;;;;;;;18.50;68.58;97966.84;1681843;85;22041;-87
2021/07/06 01:44:06;;;;;;;;;;;;;;;18.46;68.67;97968.67;1663568;85;26174;-87
2021/07/06 01:46:36;;;;;;;;;;;;;;;18.41;68.71;97962.55;1671536;84;24463;-88
2021/07/06 01:49:03;;;;;;;;;;;;;;;18.38;68.81;97958.92;1677371;84;20233;-88
2021/07/06 01:51:29;;;;;;;;;;;;;;;18.37;68.86;97958.59;1682447;84;24763;-88
2021/07/06 01:53:55;;;;;;;;;;;;;;;18.36;68.94;97962.23;1661266;84;21555;-88
2021/07/06 01:56:21;;;;;;;;;;;;;;;18.29;69.00;97942.69;1684234;85;21110;-88
2021/07/06 01:58:47;;;;;;;;;;;;;;;18.37;69.06;97952.80;1680889;85;20338;-88
2021/07/06 02:01:13;;;;;;;;;;;;;;;18.39;69.10;97949.95;1690097;84;20291;-87
2021/07/06 02:03:39;;;;;;;;;;;;;;;18.38;69.16;97949.13;1698841;84;20250;-88
2021/07/06 02:06:05;;;;;;;;;;;;;;;18.38;69.20;97949.66;1692874;84;20246;-89
2021/07/06 02:08:32;;;;;;;;;;;;;;;18.33;69.24;97947.48;1709481;83;26795;-89
2021/07/06 02:11:04;;;;;;;;;;;;;;;18.28;69.28;97948.48;1658276;85;24455;-88
2021/07/06 02:13:27;;;;;;;;;;;;;;;18.15;69.33;97950.83;1661901;85;20325;-88
2021/07/06 02:15:54;;;;;;;;;;;;;;;17.98;69.38;97945.20;1686253;83;24741;-89
2021/07/06 02:18:21;;;;;;;;;;;;;;;17.87;69.44;97943.70;1692098;84;22013;-89
2021/07/06 02:20:48;;;;;;;;;;;;;;;17.93;69.57;97941.73;1691309;83;26010;-88
2021/07/06 02:23:15;;;;;;;;;;;;;;;17.96;69.67;97939.23;1694743;83;24519;-89
2021/07/06 02:25:41;;;;;;;;;;;;;;;18.04;69.75;97939.73;1665352;85;20228;-88
2021/07/06 02:28:07;;;;;;;;;;;;;;;18.04;69.82;97939.25;1691346;83;24777;-89
2021/07/06 02:30:34;;;;;;;;;;;;;;;18.00;69.87;97946.37;1692331;83;21915;-89
2021/07/06 02:33:00;;;;;;;;;;;;;;;17.99;69.94;97950.83;1664621;85;26072;-89
2021/07/06 02:35:29;;;;;;;;;;;;;;;17.96;70.02;97954.62;1692180;84;24487;-89
2021/07/06 02:37:56;;;;;;;;;;;;;;;17.98;70.05;97951.33;1664010;85;20243;-89
2021/07/06 02:40:22;;;;;;;;;;;;;;;18.03;70.10;97954.80;1666169;85;24808;-89
2021/07/06 02:42:48;;;;;;;;;;;;;;;17.96;70.13;97948.00;1695336;83;22037;-89
2021/07/06 02:45:15;;;;;;;;;;;;;;;17.97;70.17;97950.98;1696259;82;26245;-89
2021/07/06 02:47:41;;;;;;;;;;;;;;;18.01;70.22;97952.80;1688254;83;24440;-89
2021/07/06 02:50:08;;;;;;;;;;;;;;;17.96;70.27;97947.17;1693359;83;20577;-89
2021/07/06 02:52:35;;;;;;;;;;;;;;;17.86;70.29;97951.81;1689558;83;24774;-86
2021/07/06 02:55:01;;;;;;;;;;;;;;;17.78;70.38;97954.47;1679713;85;22006;-86
2021/07/06 03:00:09;;;;;;;;;;;;;;;17.62;70.47;97945.98;1639579;87;24482;-86
2021/07/06 03:02:35;;;;;;;;;;;;;;;17.73;70.58;97940.38;1669454;85;20231;-86
2021/07/06 03:05:01;;;;;;;;;;;;;;;17.88;70.65;97943.22;1662814;86;24720;-88
2021/07/06 03:07:27;;;;;;;;;;;;;;;18.04;70.72;97949.01;1660869;86;20392;-88
2021/07/06 03:09:53;;;;;;;;;;;;;;;18.19;70.75;97951.31;1662561;86;20974;-88
2021/07/06 03:12:19;;;;;;;;;;;;;;;18.28;70.78;97947.66;1662137;86;24419;-88
2021/07/06 03:14:45;;;;;;;;;;;;;;;18.30;70.78;97950.97;1661805;85;20277;-88
2021/07/06 03:17:11;;;;;;;;;;;;;;;18.26;70.80;97954.95;1662994;84;24700;-89
2021/07/06 03:19:38;;;;;;;;;;;;;;;18.31;70.81;97960.58;1680442;85;22032;-88
2021/07/06 03:22:04;;;;;;;;;;;;;;;18.34;70.81;97953.61;1677359;84;26044;-89
2021/07/06 03:24:30;;;;;;;;;;;;;;;18.31;70.81;97952.14;1661794;86;24473;-88
2021/07/06 03:26:56;;;;;;;;;;;;;;;18.29;70.80;97952.80;1661419;86;20372;-88
2021/07/06 03:29:24;;;;;;;;;;;;;;;18.30;70.83;97962.89;1685238;83;20215;-88
2021/07/06 03:31:52;;;;;;;;;;;;;;;18.30;70.85;97964.22;1657076;84;22023;-89
2021/07/06 03:34:18;;;;;;;;;;;;;;;18.26;70.88;97949.66;1641874;86;26839;-88
2021/07/06 03:36:44;;;;;;;;;;;;;;;18.38;70.92;97961.58;1630992;88;20275;-88
2021/07/06 03:39:10;;;;;;;;;;;;;;;18.40;70.95;97958.24;1661127;84;20347;-88
2021/07/06 03:41:36;;;;;;;;;;;;;;;18.46;71.03;97962.05;1661047;86;24819;-90
2021/07/06 03:44:02;;;;;;;;;;;;;;;18.56;71.11;97966.69;1661686;84;21931;-89
2021/07/06 03:46:28;;;;;;;;;;;;;;;18.67;71.16;97974.29;1664231;86;25970;-89
2021/07/06 03:48:54;;;;;;;;;;;;;;;18.78;71.23;97978.73;1662027;85;24475;-89
2021/07/06 03:51:20;;;;;;;;;;;;;;;18.94;71.27;97973.05;1661118;86;20329;-89
2021/07/06 03:53:46;;;;;;;;;;;;;;;19.02;71.31;97963.27;1652679;86;20834;-89
2021/07/06 03:56:12;;;;;;;;;;;;;;;19.25;71.36;97977.09;1689656;84;20252;-89
2021/07/06 03:58:41;;;;;;;;;;;;;;;19.38;71.37;97979.50;1692505;84;21723;-89
2021/07/06 04:01:10;;;;;;;;;;;;;;;19.50;71.37;97979.48;1685320;84;24602;-89
2021/07/06 04:03:36;;;;;;;;;;;;;;;19.63;71.34;97974.44;1678167;85;20251;-89
2021/07/06 04:06:02;;;;;;;;;;;;;;;19.76;71.34;97978.33;1680560;84;24918;-89
2021/07/06 04:08:29;;;;;;;;;;;;;;;19.87;71.29;97977.42;1664597;85;35818;-89
2021/07/06 04:10:55;;;;;;;;;;;;;;;19.98;71.23;97973.52;1681205;85;26812;-89
2021/07/06 04:13:21;;;;;;;;;;;;;;;20.07;71.16;97981.78;1680062;85;24698;-89
2021/07/06 04:15:47;;;;;;;;;;;;;;;20.16;71.09;97981.20;1679537;85;20410;-89
2021/07/06 04:18:13;;;;;;;;;;;;;;;20.26;71.03;97981.27;1680780;84;24851;-89
2021/07/06 04:20:39;;;;;;;;;;;;;;;20.39;70.96;97978.05;1681477;85;22078;-89
2021/07/06 04:23:07;;;;;;;;;;;;;;;20.50;70.89;97978.94;1689418;83;26013;-89
2021/07/06 04:25:35;;;;;;;;;;;;;;;20.60;70.79;97980.83;1690197;83;24686;-90
2021/07/06 04:28:04;;;;;;;;;;;;;;;20.72;70.71;97977.23;1689565;83;20305;-89
2021/07/06 04:30:30;;;;;;;;;;;;;;;20.78;70.57;97973.84;1693886;83;24925;-88
2021/07/06 04:32:56;;;;;;;;;;;;;;;20.84;70.42;97976.58;1671970;85;22072;-88
2021/07/06 04:35:22;;;;;;;;;;;;;;;20.92;70.30;97974.84;1690092;84;21774;-89
2021/07/06 04:37:49;;;;;;;;;;;;;;;20.95;70.17;97972.63;1693860;83;25237;-89
2021/07/06 04:40:17;;;;;;;;;;;;;;;20.92;70.03;97977.00;1700173;83;20274;-88
2021/07/06 04:42:43;;;;;;;;;;;;;;;20.88;69.90;97978.39;1698297;83;24765;-88
2021/07/06 04:45:10;;;;;;;;;;;;;;;20.86;69.78;97978.56;1697761;83;22018;-89
2021/07/06 04:47:36;;;;;;;;;;;;;;;20.88;69.71;97977.05;1702425;83;25993;-88
2021/07/06 04:50:03;;;;;;;;;;;;;;;20.91;69.64;97974.52;1690954;83;24438;-87
2021/07/06 04:52:29;;;;;;;;;;;;;;;20.89;69.59;97966.74;1663296;85;20465;-88
2021/07/06 04:54:56;;;;;;;;;;;;;;;20.91;69.55;97964.70;1688864;83;20345;-88
2021/07/06 04:57:22;;;;;;;;;;;;;;;20.87;69.51;97963.42;1686121;84;22015;-86
2021/07/06 04:59:58;;;;;;;;;;;;;;;20.84;69.46;97967.27;1654537;85;21818;-86
2021/07/06 05:02:24;;;;;;;;;;;;;;;20.82;69.46;97969.80;1689942;84;24442;-86
2021/07/06 05:04:50;;;;;;;;;;;;;;;20.86;69.47;97972.41;1683753;84;20288;-88
2021/07/06 05:07:16;;;;;;;;;;;;;;;21.04;69.51;97974.20;1679852;84;24794;-89
2021/07/06 05:09:42;;;;;;;;;;;;;;;21.15;69.55;97970.28;1666089;85;21965;-89
2021/07/06 05:12:09;;;;;;;;;;;;;;;21.22;69.55;97968.55;1679663;84;26070;-89
2021/07/06 05:14:35;;;;;;;;;;;;;;;21.24;69.54;97971.83;1649847;85;24670;-90
2021/07/06 05:17:03;;;;;;;;;;;;;;;21.29;69.53;97975.58;1667176;84;20447;-89
2021/07/06 05:19:29;;;;;;;;;;;;;;;21.40;69.57;97976.11;1679943;84;25009;-90
2021/07/06 05:21:55;;;;;;;;;;;;;;;21.55;69.51;97988.37;1684471;84;21886;-90
2021/07/06 05:24:21;;;;;;;;;;;;;;;21.67;69.44;97993.55;1686887;84;20983;-89
2021/07/06 05:26:47;;;;;;;;;;;;;;;21.74;69.35;97992.80;1655213;85;24511;-89
2021/07/06 05:29:13;;;;;;;;;;;;;;;21.78;69.29;97995.39;1682052;84;20276;-89
2021/07/06 05:31:39;;;;;;;;;;;;;;;21.80;69.22;97996.87;1690013;84;24760;-88
2021/07/06 05:34:05;;;;;;;;;;;;;;;21.82;69.16;97996.16;1681474;83;20271;-89
2021/07/06 05:36:31;;;;;;;;;;;;;;;21.81;69.08;97990.53;1676319;84;20978;-89
2021/07/06 05:38:58;;;;;;;;;;;;;;;21.78;69.00;97989.56;1674807;84;25095;-89
2021/07/06 05:41:25;;;;;;;;;;;;;;;21.74;68.88;97986.14;1650763;85;20266;-89
2021/07/06 05:43:52;;;;;;;;;;;;;;;21.76;68.82;97986.28;1683675;84;24713;-89
2021/07/06 05:46:18;;;;;;;;;;;;;;;21.78;68.75;97985.56;1680394;84;21954;-89
2021/07/06 05:48:45;;;;;;;;;;;;;;;21.81;68.69;97989.70;1662888;84;26205;-89
2021/07/06 05:51:11;;;;;;;;;;;;;;;21.85;68.63;97989.64;1682926;84;24537;-89
2021/07/06 05:53:37;;;;;;;;;;;;;;;21.91;68.58;97991.05;1682407;84;20204;-88
2021/07/06 05:56:05;;;;;;;;;;;;;;;21.97;68.53;97988.99;1683255;84;24819;-89
2021/07/06 05:58:31;;;;;;;;;;;;;;;22.00;68.45;97998.43;1639114;87;22025;-89
2021/07/06 06:00:57;;;;;;;;;;;;;;;22.06;68.40;97994.50;1683465;84;26031;-89
2021/07/06 06:03:29;;;;;;;;;;;;;;;22.13;68.37;98005.23;1680520;84;24487;-89
2021/07/06 06:05:55;;;;;;;;;;;;;;;22.20;68.32;97996.80;1675223;83;20238;-89
2021/07/06 06:08:21;;;;;;;;;;;;;;;22.24;68.27;98010.56;1688227;84;24740;-89
2021/07/06 06:10:47;;;;;;;;;;;;;;;22.26;68.16;98004.00;1682811;84;21976;-89
2021/07/06 06:13:14;;;;;;;;;;;;;;;22.27;68.12;98002.17;1680077;84;25426;-89
2021/07/06 06:15:40;;;;;;;;;;;;;;;22.29;68.03;98009.48;1685731;84;24426;-89
2021/07/06 06:18:08;;;;;;;;;;;;;;;22.27;67.95;98003.00;1678152;84;20306;-89
2021/07/06 06:20:35;;;;;;;;;;;;;;;22.22;67.87;98005.41;1684275;84;25697;-89
2021/07/06 06:23:04;;;;;;;;;;;;;;;22.24;67.82;98011.89;1681013;84;22270;-89
2021/07/06 06:25:35;;;;;;;;;;;;;;;22.25;67.78;98005.05;1684007;83;26425;-89
2021/07/06 06:27:59;;;;;;;;;;;;;;;22.30;67.71;98002.63;1692608;84;24607;-89
2021/07/06 06:30:25;;;;;;;;;;;;;;;22.36;67.59;98000.53;1681513;84;20510;-89
2021/07/06 06:32:55;;;;;;;;;;;;;;;22.45;67.46;97994.03;1667835;84;24810;-89
2021/07/06 06:35:23;;;;;;;;;;;;;;;22.52;67.36;98001.59;1677614;84;22037;-89
2021/07/06 06:37:49;;;;;;;;;;;;;;;22.59;67.29;98004.28;1682492;84;26258;-88
2021/07/06 06:40:17;;;;;;;;;;;;;;;22.63;67.21;98006.08;1678737;84;25292;-89
2021/07/06 06:42:43;;;;;;;;;;;;;;;22.62;67.11;98004.42;1681105;84;20228;-89
2021/07/06 06:45:10;;;;;;;;;;;;;;;22.69;67.17;98005.30;1648773;86;24949;-89
2021/07/06 06:47:37;;;;;;;;;;;;;;;22.71;67.07;98009.92;1679272;84;22006;-90
2021/07/06 06:50:11;;;;;;;;;;;;;;;22.73;66.96;98015.42;1672619;84;26066;-89
2021/07/06 06:52:34;;;;;;;;;;;;;;;22.70;66.79;98005.09;1678324;85;24434;-89
2021/07/06 06:55:01;;;;;;;;;;;;;;;22.70;66.67;98011.76;1680637;85;20300;-89
2021/07/06 06:57:27;;;;;;;;;;;;;;;22.82;66.66;98013.42;1683605;85;24901;-89
2021/07/06 06:59:56;;;;;;;;;;;;;;;22.85;66.55;98013.88;1677613;85;22549;-89
2021/07/06 07:02:28;;;;;;;;;;;;;;;22.90;66.49;98015.45;1685515;82;26061;-89
2021/07/06 07:04:51;;;;;;;;;;;;;;;22.94;66.33;98015.36;1701362;83;24488;-88
2021/07/06 07:07:19;;;;;;;;;;;;;;;23.00;66.12;98016.93;1677627;83;20224;-88
2021/07/06 07:09:45;;;;;;;;;;;;;;;23.09;65.96;98017.91;1694422;84;25551;-88
2021/07/06 07:12:12;;;;;;;;;;;;;;;23.21;65.89;98019.52;1693016;83;21928;-88
2021/07/06 07:14:38;;;;;;;;;;;;;;;23.28;65.85;98011.87;1660560;84;26842;-88
2021/07/06 07:17:04;;;;;;;;;;;;;;;23.37;65.80;98023.20;1664795;86;24403;-88
2021/07/06 07:19:31;;;;;;;;;;;;;;;23.40;65.57;98025.48;1664957;86;20323;-88
2021/07/06 07:21:56;;;;;;;;;;;;;;;23.46;65.43;98024.70;1679061;84;24727;-88
2021/07/06 07:24:25;;;;;;;;;;;;;;;23.55;65.25;98022.70;1689038;83;22040;-88
2021/07/06 07:26:51;;;;;;;;;;;;;;;23.61;65.08;98024.07;1690654;82;21066;-88
2021/07/06 07:29:17;;;;;;;;;;;;;;;23.63;64.86;98024.67;1667694;85;24411;-88
2021/07/06 07:31:49;;;;;;;;;;;;;;;23.65;64.65;98021.30;1688266;83;20367;-88
2021/07/06 07:34:15;;;;;;;;;;;;;;;23.69;64.47;98023.88;1676035;83;24840;-88
2021/07/06 07:36:44;;;;;;;;;;;;;;;23.73;64.26;98024.30;1687803;83;22395;-88
2021/07/06 07:39:10;;;;;;;;;;;;;;;23.84;64.10;98025.59;1674182;84;25906;-88
2021/07/06 07:41:42;;;;;;;;;;;;;;;23.90;63.90;98022.08;1678280;84;24400;-88
2021/07/06 07:44:07;;;;;;;;;;;;;;;23.95;63.71;98031.66;1653841;84;21391;-88
2021/07/06 07:46:36;;;;;;;;;;;;;;;23.94;63.44;98022.02;1692387;83;24770;-88
2021/07/06 07:49:04;;;;;;;;;;;;;;;24.06;63.32;98017.70;1687390;83;21879;-89
2021/07/06 07:51:30;;;;;;;;;;;;;;;24.20;63.24;98015.92;1660072;85;26724;-88
2021/07/06 07:53:56;;;;;;;;;;;;;;;24.32;63.17;98016.47;1675190;83;25519;-88
2021/07/06 07:56:27;;;;;;;;;;;;;;;24.43;63.03;98023.05;1670839;84;20235;-89
2021/07/06 07:58:50;;;;;;;;;;;;;;;24.50;62.82;98018.00;1695443;83;24734;-89
2021/07/06 08:01:17;;;;;;;;;;;;;;;24.54;62.60;98017.09;1718570;83;22020;-89
2021/07/06 08:03:43;;;;;;;;;;;;;;;24.60;62.44;98018.41;1662086;85;21138;-90
2021/07/06 08:06:09;;;;;;;;;;;;;;;24.67;62.19;98018.92;1693393;83;24425;-90
2021/07/06 08:08:35;;;;;;;;;;;;;;;24.72;61.97;98017.78;1690010;83;20205;-91
2021/07/06 08:11:01;;;;;;;;;;;;;;;24.76;61.69;98014.52;1692790;83;25610;-90
2021/07/06 08:13:32;;;;;;;;;;;;;;;24.87;61.53;98023.77;1660816;85;22087;-89
2021/07/06 08:15:56;;;;;;;;;;;;;;;24.94;61.33;98023.25;1691634;82;26064;-89
2021/07/06 08:18:22;;;;;;;;;;;;;;;25.03;61.13;98019.34;1679937;83;20229;-89
2021/07/06 08:20:48;;;;;;;;;;;;;;;25.17;61.02;98020.95;1680111;84;20241;-89
2021/07/06 08:23:14;;;;;;;;;;;;;;;25.24;60.79;98023.62;1690990;83;20821;-88
2021/07/06 08:25:40;;;;;;;;;;;;;;;25.32;60.60;98020.70;1661776;85;21999;-88
2021/07/06 08:28:06;;;;;;;;;;;;;;;25.38;60.32;98015.84;1695186;83;20910;-89
2021/07/06 08:30:32;;;;;;;;;;;;;;;25.41;59.85;98019.45;1657909;85;20297;-88
2021/07/06 08:32:58;;;;;;;;;;;;;;;25.38;59.46;98015.84;1678793;83;20220;-87
2021/07/06 08:35:24;;;;;;;;;;;;;;;25.39;59.12;98012.95;1664094;85;25382;-89
2021/07/06 08:37:50;;;;;;;;;;;;;;;25.42;58.91;98011.18;1694556;83;20333;-88
2021/07/06 08:40:16;;;;;;;;;;;;;;;25.43;58.59;98014.17;1694151;83;21155;-88
2021/07/06 08:42:43;;;;;;;;;;;;;;;25.53;58.36;98015.60;1694355;83;24599;-88
2021/07/06 08:45:12;;;;;;;;;;;;;;;25.62;58.13;98018.37;1690371;83;20213;-88
2021/07/06 08:47:39;;;;;;;;;;;;;;;25.71;57.94;98015.23;1693222;83;25424;-86
2021/07/06 08:50:07;;;;;;;;;;;;;;;25.82;57.77;98016.41;1687852;83;21964;-87
2021/07/06 08:52:34;;;;;;;;;;;;;;;25.98;57.60;98016.42;1666072;84;25717;-87
2021/07/06 08:55:00;;;;;;;;;;;;;;;26.06;57.34;98018.87;1661646;85;25264;-86
2021/07/06 08:57:26;;;;;;;;;;;;;;;26.10;56.98;98017.39;1688410;83;20777;-87
2021/07/06 08:59:53;;;;;;;;;;;;;;;26.21;56.75;98014.84;1656887;85;20246;-86
2021/07/06 09:02:29;;;;;;;;;;;;;;;26.30;56.57;98020.78;1678871;84;20192;-88
2021/07/06 09:05:01;;;;;;;;;;;;;;;26.35;56.29;98019.61;1656593;84;26005;-88
2021/07/06 09:07:41;;;;;;;;;;;;;;;26.40;55.96;98018.98;1684590;84;24601;-88
2021/07/06 09:10:17;;;;;;;;;;;;;;;26.44;55.66;98014.82;1681031;84;20297;-88
2021/07/06 09:12:44;;;;;;;;;;;;;;;26.49;55.36;98017.16;1673554;84;24792;-88
2021/07/06 09:15:22;;;;;;;;;;;;;;;26.45;54.81;98009.24;1682263;84;22883;-88
2021/07/06 09:18:08;;;;;;;;;;;;;;;26.49;54.51;98012.30;1685901;84;26204;-89
2021/07/06 09:20:36;;;;;;;;;;;;;;;26.60;54.25;98014.28;1684221;84;24508;-88
2021/07/06 09:23:04;;;;;;;;;;;;;;;26.72;53.82;98009.02;1683064;84;20220;-88
2021/07/06 09:25:30;;;;;;;;;;;;;;;26.81;53.32;98009.03;1654249;84;25428;-88
2021/07/06 09:27:55;;;;;;;;;;;;;;;26.83;52.96;98006.95;1687527;83;20291;-88
2021/07/06 09:30:24;;;;;;;;;;;;;;;26.77;52.47;98003.29;1687609;84;21052;-88
2021/07/06 09:32:55;;;;;;;;;;;;;;;26.76;52.11;98004.84;1688525;84;24422;-89
2021/07/06 09:35:27;;;;;;;;;;;;;;;26.83;51.96;98002.93;1687631;84;20336;-89
2021/07/06 09:38:01;;;;;;;;;;;;;;;26.90;51.75;97999.15;1660228;83;25124;-89
2021/07/06 09:40:37;;;;;;;;;;;;;;;26.91;51.42;98002.14;1650117;85;21868;-89
2021/07/06 09:43:13;;;;;;;;;;;;;;;27.01;51.34;97993.56;1672142;84;25899;-89
2021/07/06 09:45:40;;;;;;;;;;;;;;;27.17;51.26;97992.16;1671183;85;24402;-89
2021/07/06 09:48:07;;;;;;;;;;;;;;;27.24;50.88;97983.51;1666212;83;20525;-89
2021/07/06 09:50:33;;;;;;;;;;;;;;;27.20;50.49;97980.45;1638571;85;24955;-89
2021/07/06 09:53:06;;;;;;;;;;;;;;;27.26;50.42;97978.74;1638936;85;20273;-89
2021/07/06 09:55:37;;;;;;;;;;;;;;;27.41;50.33;97975.14;1654204;85;26013;-89
2021/07/06 09:58:08;;;;;;;;;;;;;;;27.47;50.13;97965.66;1664268;84;26090;-89
2021/07/06 10:00:36;;;;;;;;;;;;;;;27.64;49.83;97971.79;1650654;85;20501;-90
2021/07/06 10:03:04;;;;;;;;;;;;;;;27.78;49.64;97974.59;1648922;85;22675;-90
2021/07/06 10:05:31;;;;;;;;;;;;;;;27.86;49.43;97971.59;1678323;82;22231;-89
2021/07/06 10:08:02;;;;;;;;;;;;;;;27.89;49.22;97970.60;1638795;86;26049;-89
2021/07/06 10:10:27;;;;;;;;;;;;;;;27.97;48.94;97966.78;1628892;87;21447;-89
2021/07/06 10:12:56;;;;;;;;;;;;;;;28.07;48.74;97974.28;1659105;84;20747;-89
2021/07/06 10:15:23;;;;;;;;;;;;;;;28.03;48.44;97971.25;1693651;83;24488;-89
2021/07/06 10:17:50;;;;;;;;;;;;;;;27.98;48.11;97972.45;1669799;85;21942;-89
2021/07/06 10:20:21;;;;;;;;;;;;;;;28.04;47.97;97971.52;1667550;85;25589;-89
2021/07/06 10:22:49;;;;;;;;;;;;;;;28.12;47.93;97967.20;1690606;84;24462;-89
2021/07/06 10:25:15;;;;;;;;;;;;;;;28.24;47.81;97965.88;1712337;82;20282;-89
2021/07/06 10:27:43;;;;;;;;;;;;;;;28.27;47.56;97961.37;1685634;84;24846;-89
2021/07/06 10:30:16;;;;;;;;;;;;;;;28.37;47.58;97954.88;1690963;84;22681;-88
2021/07/06 10:32:43;;;;;;;;;;;;;;;28.45;47.43;97953.21;1679645;84;26694;-87
2021/07/06 10:35:11;;;;;;;;;;;;;;;28.53;47.32;97955.55;1675696;83;24650;-88
2021/07/06 10:37:37;;;;;;;;;;;;;;;28.61;47.16;97957.91;1656600;85;20223;-88
2021/07/06 10:40:15;;;;;;;;;;;;;;;28.68;47.00;97958.62;1701642;83;24769;-87
2021/07/06 10:42:43;;;;;;;;;;;;;;;28.74;46.93;97960.11;1691771;83;22079;-88
2021/07/06 10:45:23;;;;;;;;;;;;;;;28.77;46.77;97955.59;1683365;84;26771;-88
2021/07/06 10:47:51;;;;;;;;;;;;;;;28.82;46.66;97955.17;1652296;86;24681;-88
2021/07/06 10:50:37;;;;;;;;;;;;;;;28.80;46.38;97957.30;1683938;84;20386;-88
2021/07/06 10:53:22;;;;;;;;;;;;;;;28.78;46.12;97958.05;1680237;84;20894;-88
2021/07/06 10:56:10;;;;;;;;;;;;;;;28.80;45.99;97952.44;1686082;84;20250;-87
2021/07/06 10:58:58;;;;;;;;;;;;;;;28.81;45.82;97953.53;1665250;84;22186;-88
2021/07/06 11:01:53;;;;;;;;;;;;;;;28.75;45.48;97948.29;1666661;85;21993;-90
2021/07/06 11:04:45;;;;;;;;;;;;;;;28.64;45.21;97943.13;1656538;85;20218;-90
2021/07/06 11:07:31;;;;;;;;;;;;;;;28.66;45.05;97941.04;1659714;85;21075;-90
2021/07/06 11:10:16;;;;;;;;;;;;;;;28.75;45.02;97941.55;1656208;86;20193;-89
2021/07/06 11:13:14;;;;;;;;;;;;;;;28.85;44.84;97935.87;1653339;86;23344;-90
2021/07/06 11:16:06;;;;;;;;;;;;;;;28.91;44.53;97932.75;1656870;86;20562;-89
2021/07/06 11:18:51;;;;;;;;;;;;;;;28.99;44.29;97932.38;1660231;86;20165;-90
2021/07/06 11:21:36;;;;;;;;;;;;;;;29.06;44.32;97932.55;1657509;86;20898;-85
2021/07/06 11:24:23;;;;;;;;;;;;;;;29.08;44.12;97930.95;1664564;85;20340;-87
2021/07/06 11:27:10;;;;;;;;;;;;;;;29.06;43.93;97932.55;1649240;86;22120;-87
2021/07/06 11:29:54;;;;;;;;;;;;;;;29.10;44.02;97932.89;1667400;85;20625;-87
2021/07/06 11:32:40;;;;;;;;;;;;;;;29.15;43.84;97929.47;1706247;83;20728;-89
2021/07/06 11:35:24;;;;;;;;;;;;;;;29.19;43.83;97933.33;1666224;85;21019;-90
2021/07/06 11:38:11;;;;;;;;;;;;;;;29.09;43.69;97925.85;1666428;85;20177;-90
2021/07/06 11:40:57;;;;;;;;;;;;;;;29.13;43.63;97924.88;1653471;86;22120;-89
2021/07/06 11:43:41;;;;;;;;;;;;;;;29.20;43.58;97918.27;1659480;86;22430;-89
2021/07/06 11:46:27;;;;;;;;;;;;;;;29.29;43.55;97917.38;1624132;87;20280;-89
2021/07/06 11:49:16;;;;;;;;;;;;;;;29.38;43.47;97914.63;1664039;85;22800;-90
2021/07/06 11:51:42;;;;;;;;;;;;;;;29.50;43.50;97910.83;1658982;85;22112;-90
2021/07/06 11:54:08;;;;;;;;;;;;;;;29.54;43.28;97905.77;1635093;86;26619;-88
2021/07/06 11:56:37;;;;;;;;;;;;;;;29.64;43.28;97915.92;1651608;85;24477;-89
2021/07/06 11:59:04;;;;;;;;;;;;;;;29.76;43.26;97913.99;1658289;85;20236;-89
2021/07/06 12:01:30;;;;;;;;;;;;;;;29.74;43.00;97912.87;1694874;83;24796;-88
2021/07/06 12:03:59;;;;;;;;;;;;;;;29.73;42.82;97911.23;1658798;85;22041;-88
2021/07/06 12:06:28;;;;;;;;;;;;;;;29.70;42.59;97909.56;1631011;85;25915;-89
2021/07/06 12:08:54;;;;;;;;;;;;;;;29.70;42.46;97896.89;1622622;87;24547;-88
2021/07/06 12:11:24;;;;;;;;;;;;;;;29.69;42.35;97899.83;1656260;85;20254;-88
2021/07/06 12:14:01;;;;;;;;;;;;;;;29.73;42.32;97898.30;1667668;85;24705;-89
2021/07/06 12:16:33;;;;;;;;;;;;;;;29.72;42.09;97897.48;1650504;85;22016;-88
2021/07/06 12:19:00;;;;;;;;;;;;;;;29.57;41.60;97894.48;1668441;85;25962;-88
2021/07/06 12:21:28;;;;;;;;;;;;;;;29.43;41.38;97895.84;1653997;85;24454;-89
2021/07/06 12:23:55;;;;;;;;;;;;;;;29.55;41.53;97895.27;1649492;85;20248;-88
2021/07/06 12:26:22;;;;;;;;;;;;;;;29.72;41.77;97896.13;1659426;85;24720;-88
2021/07/06 12:28:48;;;;;;;;;;;;;;;29.92;41.96;97895.69;1669086;85;22230;-88
2021/07/06 12:31:25;;;;;;;;;;;;;;;30.05;41.82;97890.52;1669863;85;26155;-88
2021/07/06 12:34:11;;;;;;;;;;;;;;;29.96;41.37;97893.31;1662957;85;20453;-88
2021/07/06 12:36:48;;;;;;;;;;;;;;;29.76;41.01;97888.36;1662105;85;20373;-88
2021/07/06 12:39:16;;;;;;;;;;;;;;;29.72;40.99;97883.17;1646189;84;24761;-88
2021/07/06 12:41:43;;;;;;;;;;;;;;;29.71;40.90;97881.00;1658746;85;23028;-88
2021/07/06 12:44:10;;;;;;;;;;;;;;;29.76;40.93;97876.22;1656422;85;25674;-88
2021/07/06 12:46:37;;;;;;;;;;;;;;;29.88;41.18;97866.19;1639354;85;24606;-88
2021/07/06 12:49:04;;;;;;;;;;;;;;;29.96;41.17;97861.75;1647065;85;20620;-88
2021/07/06 12:51:30;;;;;;;;;;;;;;;30.01;41.17;97859.13;1670015;85;24821;-88
2021/07/06 12:53:57;;;;;;;;;;;;;;;30.15;41.32;97861.80;1651092;85;22103;-88
2021/07/06 12:56:27;;;;;;;;;;;;;;;30.26;41.36;97858.73;1671949;84;26073;-88
2021/07/06 12:58:52;;;;;;;;;;;;;;;30.32;41.26;97851.81;1701003;83;24637;-88